createdAt,value
2022-11-24T00:00:06.806Z,48.40
2022-11-24T00:02:55.050Z,49.70
2022-11-24T00:05:24.012Z,44.50
2022-11-24T00:07:52.313Z,47.70
2022-11-24T00:10:20.643Z,44.10
2022-11-24T00:12:48.926Z,46.60
2022-11-24T00:15:17.190Z,47.00
2022-11-24T00:17:45.549Z,45.30
2022-11-24T00:20:13.814Z,44.70
2022-11-24T00:22:42.349Z,41.50
2022-11-24T00:25:10.626Z,47.90
2022-11-24T00:27:38.817Z,48.20
2022-11-24T00:30:07.596Z,46.60
2022-11-24T00:32:36.090Z,47.90
2022-11-24T00:35:04.865Z,44.40
2022-11-24T00:37:33.071Z,43.10
2022-11-24T00:40:01.338Z,50.20
2022-11-24T00:42:29.882Z,45.40
2022-11-24T00:44:58.332Z,42.70
2022-11-24T00:47:29.092Z,41.20
2022-11-24T00:49:57.331Z,44.50
2022-11-24T00:52:25.527Z,42.90
2022-11-24T00:54:53.915Z,46.90
2022-11-24T00:57:22.257Z,44.80
2022-11-24T00:59:50.601Z,45.20
2022-11-24T01:02:18.749Z,47.80
2022-11-24T01:04:48.468Z,43.30
2022-11-24T01:07:16.361Z,47.20
2022-11-24T01:09:46.903Z,47.90
2022-11-24T01:12:15.572Z,42.10
2022-11-24T01:14:44.186Z,42.30
2022-11-24T01:17:12.350Z,44.70
2022-11-24T01:19:43.705Z,44.70
2022-11-24T01:22:13.812Z,43.10
2022-11-24T01:24:42.368Z,43.20
2022-11-24T01:27:13.885Z,46.10
2022-11-24T01:29:43.011Z,46.20
2022-11-24T01:32:11.193Z,45.20
2022-11-24T01:34:39.455Z,43.90
2022-11-24T01:37:07.602Z,42.40
2022-11-24T01:39:35.960Z,45.10
2022-11-24T01:42:04.556Z,42.40
2022-11-24T01:44:33.183Z,42.60
2022-11-24T01:47:19.987Z,45.50
2022-11-24T01:49:56.138Z,42.00
2022-11-24T01:52:47.446Z,40.10
2022-11-24T01:55:21.671Z,41.80
2022-11-24T01:57:58.689Z,39.80
2022-11-24T02:00:27.041Z,43.70
2022-11-24T02:02:56.477Z,40.80
2022-11-24T02:05:38.479Z,44.60
2022-11-24T02:08:13.206Z,42.70
2022-11-24T02:10:43.024Z,41.40
2022-11-24T02:13:13.390Z,47.00
2022-11-24T02:15:42.273Z,42.00
2022-11-24T02:18:10.739Z,43.40
2022-11-24T02:20:39.121Z,50.00
2022-11-24T02:23:38.047Z,46.10
2022-11-24T02:26:37.306Z,45.40
2022-11-24T02:31:35.121Z,50.30
2022-11-24T02:34:03.645Z,51.70
2022-11-24T02:36:31.849Z,46.40
2022-11-24T02:39:00.070Z,48.70
2022-11-24T02:41:29.446Z,47.50
2022-11-24T02:44:02.059Z,49.80
2022-11-24T02:46:30.530Z,45.30
2022-11-24T02:48:58.788Z,46.10
2022-11-24T02:51:27.002Z,45.60
2022-11-24T02:53:55.369Z,47.90
2022-11-24T02:56:23.577Z,47.20
2022-11-24T02:58:52.001Z,44.70
2022-11-24T03:01:20.519Z,48.00
2022-11-24T03:03:48.907Z,47.20
2022-11-24T03:06:17.132Z,49.00
2022-11-24T03:08:45.558Z,52.10
2022-11-24T03:11:13.760Z,53.50
2022-11-24T03:13:42.060Z,51.60
2022-11-24T03:16:10.729Z,51.50
2022-11-24T03:18:39.406Z,49.90
2022-11-24T03:21:10.783Z,48.40
2022-11-24T03:23:39.195Z,49.40
2022-11-24T03:26:13.108Z,51.60
2022-11-24T03:28:41.771Z,48.00
2022-11-24T03:31:10.957Z,49.70
2022-11-24T03:33:39.895Z,50.70
2022-11-24T03:36:08.699Z,55.20
2022-11-24T03:38:36.960Z,58.70
2022-11-24T03:41:05.296Z,83.50
2022-11-24T03:43:34.524Z,104.70
2022-11-24T03:46:05.064Z,84.10
2022-11-24T03:48:33.397Z,96.90
2022-11-24T03:51:03.510Z,89.60
2022-11-24T03:53:34.140Z,70.90
2022-11-24T03:56:03.076Z,63.60
2022-11-24T03:58:31.647Z,59.50
2022-11-24T04:01:00.024Z,58.90
2022-11-24T04:03:28.346Z,58.00
2022-11-24T04:05:56.722Z,58.60
2022-11-24T04:08:24.992Z,52.70
2022-11-24T04:10:54.761Z,56.70
2022-11-24T04:13:25.021Z,59.60
2022-11-24T04:15:53.807Z,52.70
2022-11-24T04:18:22.377Z,52.80
2022-11-24T04:20:51.688Z,52.00
2022-11-24T04:23:20.418Z,53.90
2022-11-24T04:25:49.105Z,51.40
2022-11-24T04:28:17.887Z,55.10
2022-11-24T04:31:05.737Z,47.10
2022-11-24T04:33:36.012Z,50.10
2022-11-24T04:36:09.851Z,50.60
2022-11-24T04:39:19.899Z,55.00
2022-11-24T04:41:28.250Z,59.30
2022-11-24T04:44:01.048Z,50.80
2022-11-24T04:46:40.020Z,49.50
2022-11-24T04:49:13.488Z,57.50
2022-11-24T04:51:49.203Z,54.70
2022-11-24T04:54:19.166Z,55.30
2022-11-24T04:56:58.016Z,53.10
2022-11-24T04:59:26.853Z,56.50
2022-11-24T05:01:59.786Z,50.50
2022-11-24T05:04:34.929Z,56.20
2022-11-24T05:07:21.869Z,50.20
2022-11-24T05:10:13.300Z,55.50
2022-11-24T05:12:49.953Z,50.90
2022-11-24T05:15:22.133Z,56.10
2022-11-24T05:17:51.622Z,53.80
2022-11-24T05:20:22.887Z,52.90
2022-11-24T05:22:51.844Z,50.60
2022-11-24T05:25:20.751Z,52.00
2022-11-24T05:27:48.915Z,49.00
2022-11-24T05:30:18.070Z,49.00
2022-11-24T05:32:49.857Z,53.60
2022-11-24T05:35:19.162Z,51.40
2022-11-24T05:40:19.632Z,44.90
2022-11-24T05:42:51.915Z,52.40
2022-11-24T05:45:29.576Z,52.70
2022-11-24T05:48:15.783Z,52.00
2022-11-24T05:50:44.412Z,54.90
2022-11-24T05:53:14.277Z,52.50
2022-11-24T05:55:43.693Z,51.20
2022-11-24T05:58:13.138Z,54.80
2022-11-24T06:00:46.463Z,53.10
2022-11-24T06:03:15.384Z,52.70
2022-11-24T06:05:47.810Z,48.60
2022-11-24T06:08:20.930Z,48.60
2022-11-24T06:10:50.733Z,50.10
2022-11-24T06:13:20.772Z,46.20
2022-11-24T06:15:50.822Z,53.60
2022-11-24T06:21:09.221Z,54.70
2022-11-24T06:23:41.006Z,57.70
2022-11-24T06:26:09.804Z,56.10
2022-11-24T06:28:39.529Z,55.00
2022-11-24T06:33:41.155Z,47.90
2022-11-24T06:36:13.266Z,52.90
2022-11-24T06:38:41.547Z,52.90
2022-11-24T06:41:15.530Z,49.40
2022-11-24T06:43:45.116Z,49.40
2022-11-24T06:46:21.357Z,48.80
2022-11-24T06:48:53.953Z,46.00
2022-11-24T06:51:21.818Z,53.10
2022-11-24T06:53:49.752Z,50.70
2022-11-24T06:56:22.445Z,54.70
2022-11-24T06:58:52.563Z,51.00
2022-11-24T07:01:24.271Z,51.30
2022-11-24T07:03:54.434Z,53.30
2022-11-24T07:06:24.101Z,51.30
2022-11-24T07:08:52.752Z,51.10
2022-11-24T07:11:22.853Z,50.80
2022-11-24T07:13:59.638Z,55.60
2022-11-24T07:16:28.700Z,59.50
2022-11-24T07:18:57.503Z,59.40
2022-11-24T07:21:27.764Z,61.00
2022-11-24T07:24:01.732Z,66.50
2022-11-24T07:26:39.346Z,75.60
2022-11-24T07:29:08.178Z,70.30
2022-11-24T07:31:54.886Z,68.50
2022-11-24T07:34:25.000Z,67.70
2022-11-24T07:37:05.472Z,66.30
2022-11-24T07:39:37.260Z,59.90
2022-11-24T07:42:18.604Z,60.30
2022-11-24T07:45:35.750Z,64.50
2022-11-24T07:48:15.450Z,57.40
2022-11-24T07:50:44.554Z,57.40
2022-11-24T07:53:12.837Z,58.20
2022-11-24T07:55:41.613Z,53.80
2022-11-24T07:58:09.801Z,59.30
2022-11-24T08:00:43.630Z,56.70
2022-11-24T08:03:13.058Z,56.60
2022-11-24T08:06:00.680Z,56.50
2022-11-24T08:08:33.430Z,60.10
2022-11-24T08:11:06.336Z,65.70
2022-11-24T08:13:37.864Z,57.70
2022-11-24T08:16:07.647Z,57.70
2022-11-24T08:18:38.769Z,59.60
2022-11-24T08:21:07.491Z,51.70
2022-11-24T08:23:35.383Z,59.50
2022-11-24T08:26:07.275Z,61.00
2022-11-24T08:28:36.527Z,63.40
2022-11-24T08:31:16.204Z,68.10
2022-11-24T08:33:47.033Z,69.30
2022-11-24T08:36:22.587Z,68.20
2022-11-24T08:38:56.589Z,71.10
2022-11-24T08:41:29.163Z,61.00
2022-11-24T08:43:59.033Z,64.00
2022-11-24T08:46:27.070Z,64.70
2022-11-24T08:48:56.221Z,63.70
2022-11-24T08:51:26.322Z,64.40
2022-11-24T08:53:56.878Z,64.60
2022-11-24T08:56:29.686Z,62.60
2022-11-24T08:59:00.811Z,65.20
2022-11-24T09:01:33.035Z,68.50
2022-11-24T09:04:02.124Z,67.40
2022-11-24T09:06:32.785Z,67.80
2022-11-24T09:09:01.792Z,61.90
2022-11-24T09:11:31.495Z,66.90
2022-11-24T09:14:08.383Z,61.60
2022-11-24T09:16:44.515Z,58.60
2022-11-24T09:19:12.864Z,55.90
2022-11-24T09:21:41.606Z,59.50
2022-11-24T09:24:10.550Z,59.30
2022-11-24T09:26:43.061Z,61.30
2022-11-24T09:29:16.419Z,58.00
2022-11-24T09:31:44.701Z,59.60
2022-11-24T09:34:17.710Z,61.10
2022-11-24T09:36:45.810Z,58.50
2022-11-24T09:39:14.110Z,60.80
2022-11-24T09:44:42.488Z,50.30
2022-11-24T09:47:22.518Z,60.90
2022-11-24T09:50:04.193Z,59.30
2022-11-24T09:53:02.135Z,56.70
2022-11-24T09:55:49.828Z,58.90
2022-11-24T09:58:48.625Z,56.40
2022-11-24T10:01:28.715Z,55.90
2022-11-24T10:04:02.619Z,57.00
2022-11-24T10:06:47.635Z,50.60
2022-11-24T10:09:40.850Z,55.20
2022-11-24T10:12:21.864Z,51.60
2022-11-24T10:15:19.299Z,54.70
2022-11-24T10:18:17.261Z,63.00
2022-11-24T10:21:04.226Z,63.10
2022-11-24T10:23:47.728Z,60.30
2022-11-24T10:26:30.064Z,60.70
2022-11-24T10:28:58.116Z,52.80
2022-11-24T10:31:41.950Z,59.40
2022-11-24T10:34:21.171Z,61.00
2022-11-24T10:37:11.340Z,53.30
2022-11-24T10:39:51.515Z,61.30
2022-11-24T10:42:31.757Z,59.20
2022-11-24T10:45:11.861Z,53.30
2022-11-24T10:47:43.444Z,49.70
2022-11-24T10:50:43.868Z,52.60
2022-11-24T10:53:16.835Z,50.30
2022-11-24T10:55:57.600Z,51.80
2022-11-24T10:58:37.315Z,56.90
2022-11-24T11:01:15.563Z,57.20
2022-11-24T11:03:56.909Z,58.30
2022-11-24T11:06:32.188Z,60.20
2022-11-24T11:09:07.339Z,55.80
2022-11-24T11:11:36.918Z,60.30
2022-11-24T11:14:13.260Z,62.70
2022-11-24T11:16:55.808Z,59.40
2022-11-24T11:19:49.487Z,63.60
2022-11-24T11:22:24.252Z,57.70
2022-11-24T11:25:20.119Z,61.50
2022-11-24T11:27:49.764Z,56.60
2022-11-24T11:36:16.900Z,61.00
2022-11-24T11:38:47.053Z,58.70
2022-11-24T11:41:22.404Z,63.60
2022-11-24T11:43:56.812Z,60.00
2022-11-24T11:46:32.816Z,55.70
2022-11-24T11:49:00.832Z,55.90
2022-11-24T11:55:14.699Z,56.10
2022-11-24T11:58:01.783Z,56.30
2022-11-24T12:00:33.619Z,53.20
2022-11-24T12:03:16.688Z,58.00
2022-11-24T12:05:58.955Z,61.60
2022-11-24T12:09:18.046Z,60.20
2022-11-24T12:12:03.759Z,58.50
2022-11-24T12:14:44.738Z,55.30
2022-11-24T12:17:53.101Z,58.90
2022-11-24T12:20:39.889Z,60.50
2022-11-24T12:23:33.115Z,64.70
2022-11-24T12:26:15.280Z,58.70
2022-11-24T12:28:58.388Z,58.10
2022-11-24T12:31:45.827Z,58.90
2022-11-24T12:34:39.049Z,57.10
2022-11-24T12:37:36.344Z,55.50
2022-11-24T12:40:24.013Z,57.80
2022-11-24T12:43:24.853Z,58.40
2022-11-24T12:46:19.785Z,56.60
2022-11-24T12:49:06.406Z,55.00
2022-11-24T12:51:46.408Z,49.20
2022-11-24T12:54:17.670Z,56.90
2022-11-24T12:57:07.889Z,60.90
2022-11-24T12:59:56.528Z,43.30
2022-11-24T13:03:03.674Z,62.60
2022-11-24T13:05:59.545Z,59.40
2022-11-24T13:08:28.930Z,63.30
2022-11-24T13:13:59.716Z,62.60
2022-11-24T13:16:38.745Z,65.80
2022-11-24T13:19:20.178Z,71.70
2022-11-24T13:21:56.559Z,68.80
2022-11-24T13:24:36.914Z,55.20
2022-11-24T13:27:18.895Z,56.20
2022-11-24T13:29:48.384Z,61.20
2022-11-24T13:32:19.753Z,63.30
2022-11-24T13:34:49.765Z,64.40
2022-11-24T13:37:31.898Z,59.40
2022-11-24T13:40:23.787Z,61.00
2022-11-24T13:42:54.369Z,63.60
2022-11-24T13:45:53.007Z,62.20
2022-11-24T13:48:21.951Z,64.70
2022-11-24T13:50:50.594Z,57.80
2022-11-24T13:53:42.564Z,64.70
2022-11-24T13:56:13.569Z,58.90
2022-11-24T13:58:46.253Z,51.20
2022-11-24T14:01:19.479Z,51.30
2022-11-24T14:04:28.001Z,57.20
2022-11-24T14:06:46.361Z,53.10
2022-11-24T14:09:26.484Z,57.70
2022-11-24T14:12:12.809Z,53.60
2022-11-24T14:14:42.034Z,54.70
2022-11-24T14:17:20.165Z,52.80
2022-11-24T14:19:50.323Z,48.10
2022-11-24T14:22:21.669Z,51.10
2022-11-24T14:24:54.780Z,47.80
2022-11-24T14:27:29.706Z,52.50
2022-11-24T14:30:02.252Z,50.50
2022-11-24T14:32:30.204Z,50.80
2022-11-24T14:34:58.027Z,52.70
2022-11-24T14:37:26.069Z,56.10
2022-11-24T14:39:56.333Z,56.30
2022-11-24T14:42:25.808Z,57.20
2022-11-24T14:47:31.292Z,67.90
2022-11-24T14:50:22.984Z,70.00
2022-11-24T14:52:56.650Z,64.90
2022-11-24T14:55:26.121Z,59.70
2022-11-24T14:57:56.692Z,67.10
2022-11-24T15:00:24.792Z,69.40
2022-11-24T15:03:01.630Z,68.30
2022-11-24T15:05:51.534Z,63.60
2022-11-24T15:08:19.865Z,60.80
2022-11-24T15:10:48.329Z,59.60
2022-11-24T15:13:22.797Z,65.10
2022-11-24T15:16:01.811Z,59.80
2022-11-24T15:18:38.966Z,60.90
2022-11-24T15:21:07.079Z,70.90
2022-11-24T15:23:36.254Z,64.60
2022-11-24T15:26:04.227Z,62.30
2022-11-24T15:28:33.459Z,61.10
2022-11-24T15:31:04.157Z,58.00
2022-11-24T15:33:32.224Z,66.10
2022-11-24T15:36:00.158Z,61.40
2022-11-24T15:38:27.922Z,62.90
2022-11-24T15:41:00.225Z,61.40
2022-11-24T15:43:38.682Z,67.10
2022-11-24T15:46:09.015Z,69.00
2022-11-24T15:48:37.095Z,67.50
2022-11-24T15:51:13.825Z,57.70
2022-11-24T15:53:48.071Z,60.70
2022-11-24T15:56:36.935Z,66.40
2022-11-24T15:59:04.907Z,67.70
2022-11-24T16:01:34.449Z,70.50
2022-11-24T16:04:02.767Z,69.60
2022-11-24T16:06:31.018Z,66.00
2022-11-24T16:08:59.164Z,66.30
2022-11-24T16:11:27.566Z,66.00
2022-11-24T16:13:55.462Z,61.50
2022-11-24T16:16:25.212Z,62.40
2022-11-24T16:18:54.053Z,62.80
2022-11-24T16:21:21.893Z,58.60
2022-11-24T16:23:49.647Z,54.90
2022-11-24T16:26:17.586Z,58.40
2022-11-24T16:28:46.046Z,62.60
2022-11-24T16:31:16.091Z,66.60
2022-11-24T16:33:47.769Z,57.90
2022-11-24T16:36:15.503Z,60.60
2022-11-24T16:38:43.758Z,57.60
2022-11-24T16:41:11.956Z,57.50
2022-11-24T16:43:40.070Z,67.60
2022-11-24T16:46:16.069Z,66.20
2022-11-24T16:48:45.739Z,67.50
2022-11-24T16:51:14.347Z,65.50
2022-11-24T16:53:42.971Z,85.30
2022-11-24T16:56:10.876Z,76.70
2022-11-24T16:58:40.245Z,73.40
2022-11-24T17:01:13.885Z,71.60
2022-11-24T17:03:42.202Z,82.00
2022-11-24T17:06:12.339Z,78.10
2022-11-24T17:08:41.423Z,81.40
2022-11-24T17:11:23.828Z,70.40
2022-11-24T17:13:52.152Z,69.90
2022-11-24T17:16:22.284Z,70.60
2022-11-24T17:18:50.495Z,60.80
2022-11-24T17:21:23.920Z,61.20
2022-11-24T17:23:56.893Z,61.50
2022-11-24T17:26:25.530Z,59.20
2022-11-24T17:28:54.120Z,69.30
2022-11-24T17:31:24.432Z,71.00
2022-11-24T17:33:57.845Z,73.40
2022-11-24T17:36:27.204Z,60.10
2022-11-24T17:41:23.386Z,75.60
2022-11-24T17:43:58.187Z,83.50
2022-11-24T17:46:27.913Z,82.70
2022-11-24T17:48:56.055Z,78.60
2022-11-24T17:51:25.514Z,80.20
2022-11-24T17:56:24.583Z,82.60
2022-11-24T17:58:58.006Z,86.40
2022-11-24T18:01:28.609Z,95.70
2022-11-24T18:03:57.251Z,90.90
2022-11-24T18:06:25.811Z,93.10
2022-11-24T18:08:54.217Z,97.80
2022-11-24T18:11:30.626Z,93.30
2022-11-24T18:14:02.524Z,94.90
2022-11-24T18:16:33.072Z,94.40
2022-11-24T18:19:11.455Z,86.40
2022-11-24T18:21:41.346Z,92.70
2022-11-24T18:24:11.273Z,86.80
2022-11-24T18:26:40.669Z,87.60
2022-11-24T18:29:09.361Z,90.40
2022-11-24T18:31:38.062Z,100.50
2022-11-24T18:34:06.273Z,97.50
2022-11-24T18:36:34.988Z,104.80
2022-11-24T18:39:08.907Z,90.40
2022-11-24T18:41:36.913Z,103.40
2022-11-24T18:44:08.239Z,85.50
2022-11-24T18:46:37.932Z,87.00
2022-11-24T18:49:07.132Z,89.90
2022-11-24T18:51:36.055Z,83.30
2022-11-24T18:54:05.868Z,85.30
2022-11-24T18:56:34.969Z,86.50
2022-11-24T18:59:02.746Z,84.10
2022-11-24T19:01:31.000Z,79.20
2022-11-24T19:04:01.785Z,71.40
2022-11-24T19:06:33.610Z,71.20
2022-11-24T19:09:07.893Z,67.30
2022-11-24T19:11:37.895Z,63.90
2022-11-24T19:14:07.148Z,73.40
2022-11-24T19:19:03.987Z,76.30
2022-11-24T19:21:33.824Z,77.00
2022-11-24T19:24:05.422Z,88.20
2022-11-24T19:26:37.074Z,94.90
2022-11-24T19:29:06.353Z,139.40
2022-11-24T19:31:35.153Z,90.90
2022-11-24T19:34:03.590Z,83.70
2022-11-24T19:36:33.621Z,87.30
2022-11-24T19:39:05.095Z,91.90
2022-11-24T19:41:33.648Z,82.90
2022-11-24T19:44:01.389Z,91.90
2022-11-24T19:46:30.298Z,77.80
2022-11-24T19:49:02.321Z,75.50
2022-11-24T19:51:35.107Z,83.30
2022-11-24T19:54:04.846Z,82.20
2022-11-24T19:56:36.220Z,91.50
2022-11-24T19:59:06.012Z,83.30
2022-11-24T20:01:39.881Z,86.90
2022-11-24T20:04:11.416Z,79.60
2022-11-24T20:06:41.901Z,76.00
2022-11-24T20:09:12.271Z,83.00
2022-11-24T20:11:41.193Z,81.70
2022-11-24T20:14:12.145Z,77.10
2022-11-24T20:16:40.685Z,84.30
2022-11-24T20:19:12.399Z,87.40
2022-11-24T20:21:41.718Z,78.30
2022-11-24T20:24:15.715Z,71.60
2022-11-24T20:26:50.084Z,77.20
2022-11-24T20:29:19.171Z,82.90
2022-11-24T20:31:49.934Z,78.90
2022-11-24T20:34:18.999Z,85.90
2022-11-24T20:36:47.725Z,87.00
2022-11-24T20:39:20.175Z,85.40
2022-11-24T20:41:48.052Z,82.20
2022-11-24T20:44:17.856Z,80.00
2022-11-24T20:46:46.694Z,86.30
2022-11-24T20:49:16.847Z,81.60
2022-11-24T20:51:47.892Z,87.80
2022-11-24T20:54:18.148Z,92.90
2022-11-24T20:56:47.466Z,82.40
2022-11-24T20:59:18.459Z,83.90
2022-11-24T21:01:47.906Z,89.10
2022-11-24T21:06:45.314Z,88.00
2022-11-24T21:09:13.105Z,82.30
2022-11-24T21:11:41.231Z,92.60
2022-11-24T21:14:10.397Z,89.80
2022-11-24T21:16:40.169Z,80.00
2022-11-24T21:19:13.075Z,86.90
2022-11-24T21:21:42.650Z,83.80
2022-11-24T21:24:18.408Z,89.00
2022-11-24T21:26:51.226Z,89.40
2022-11-24T21:29:22.180Z,86.00
2022-11-24T21:31:50.132Z,87.50
2022-11-24T21:34:19.458Z,86.20
2022-11-24T21:36:47.986Z,81.70
2022-11-24T21:39:16.310Z,90.80
2022-11-24T21:41:44.489Z,90.70
2022-11-24T21:44:13.600Z,76.80
2022-11-24T21:46:49.704Z,72.60
2022-11-24T21:49:22.085Z,76.50
2022-11-24T21:51:55.375Z,78.80
2022-11-24T21:54:23.946Z,77.50
2022-11-24T21:56:53.219Z,75.50
2022-11-24T21:59:21.917Z,71.20
2022-11-24T22:01:49.939Z,71.10
2022-11-24T22:04:17.893Z,73.00
2022-11-24T22:06:45.594Z,78.30
2022-11-24T22:09:17.699Z,76.80
2022-11-24T22:11:46.526Z,86.70
2022-11-24T22:14:14.465Z,84.10
2022-11-24T22:16:42.292Z,87.30
2022-11-24T22:19:10.256Z,87.60
2022-11-24T22:21:38.130Z,88.30
2022-11-24T22:24:06.080Z,73.80
2022-11-24T22:26:33.746Z,80.10
2022-11-24T22:29:01.770Z,85.60
2022-11-24T22:31:32.221Z,75.00
2022-11-24T22:34:00.943Z,76.70
2022-11-24T22:36:30.234Z,79.40
2022-11-24T22:39:04.090Z,79.70
2022-11-24T22:41:34.046Z,80.80
2022-11-24T22:44:02.496Z,82.30
2022-11-24T22:46:31.310Z,89.90
2022-11-24T22:49:00.845Z,89.30
2022-11-24T22:51:32.492Z,87.30
2022-11-24T22:54:02.638Z,94.40
2022-11-24T22:56:33.597Z,81.70
2022-11-24T22:59:02.591Z,83.90
2022-11-24T23:01:33.853Z,84.40
2022-11-24T23:04:03.731Z,64.40
2022-11-24T23:06:33.120Z,81.10
2022-11-24T23:09:02.712Z,64.00
2022-11-24T23:11:37.661Z,74.20
2022-11-24T23:14:08.749Z,59.40
2022-11-24T23:16:36.802Z,70.30
2022-11-24T23:19:05.194Z,74.70
2022-11-24T23:21:36.119Z,65.00
2022-11-24T23:24:04.547Z,57.50
2022-11-24T23:26:36.574Z,59.40
2022-11-24T23:29:05.680Z,47.80
2022-11-24T23:31:33.994Z,52.60
2022-11-24T23:34:03.510Z,52.50
2022-11-24T23:36:32.698Z,56.10
2022-11-24T23:39:10.992Z,64.00
2022-11-24T23:41:39.144Z,63.90
2022-11-24T23:44:07.713Z,61.60
2022-11-24T23:46:35.577Z,59.40
2022-11-24T23:49:03.622Z,59.00
2022-11-24T23:51:32.924Z,64.00
2022-11-24T23:56:46.776Z,53.40
2022-11-24T23:59:17.384Z,51.40
